TimeAKST,TemperatureF,Dew PointF,Humidity,Sea Level PressureIn,VisibilityMPH,Wind Direction,Wind SpeedMPH,Gust SpeedMPH,PrecipitationIn,Events,Conditions,WindDirDegrees,DateUTC
12:33 AM,35.6,35.6,100,29.84,10.0,East,8.1,-,N/A,,Overcast,90,2013-02-19 09:33:00
12:56 AM,36.9,36.9,100,29.85,10.0,East,5.8,-,N/A,,Mostly Cloudy,90,2013-02-19 09:56:00
1:38 AM,35.6,35.6,100,29.85,10.0,East,6.9,-,N/A,,Overcast,100,2013-02-19 10:38:00
1:56 AM,36.0,36.0,100,29.85,10.0,East,6.9,-,N/A,,Mostly Cloudy,90,2013-02-19 10:56:00
2:27 AM,35.6,35.6,100,29.85,10.0,ESE,4.6,-,N/A,,Mostly Cloudy,120,2013-02-19 11:27:00
2:56 AM,33.8,33.8,100,29.86,10.0,SE,4.6,-,N/A,,Mostly Cloudy,130,2013-02-19 11:56:00
3:56 AM,32.9,32.9,100,29.83,10.0,Calm,Calm,-,N/A,,Overcast,0,2013-02-19 12:56:00
4:56 AM,32.9,32.9,100,29.83,10.0,Calm,Calm,-,N/A,,Mostly Cloudy,0,2013-02-19 13:56:00
5:56 AM,33.8,33.8,100,29.85,10.0,Calm,Calm,-,N/A,,Overcast,0,2013-02-19 14:56:00
6:56 AM,32.9,32.9,100,29.86,10.0,NE,3.5,-,N/A,,Mostly Cloudy,40,2013-02-19 15:56:00
7:56 AM,32.9,32.9,100,29.84,10.0,Calm,Calm,-,N/A,,Mostly Cloudy,0,2013-02-19 16:56:00
8:56 AM,33.8,33.8,100,29.84,10.0,Calm,Calm,-,N/A,,Mostly Cloudy,0,2013-02-19 17:56:00
9:56 AM,36.0,36.0,100,29.84,10.0,Calm,Calm,-,N/A,,Mostly Cloudy,0,2013-02-19 18:56:00
10:56 AM,38.8,38.8,100,29.83,10.0,WNW,3.5,-,N/A,,Mostly Cloudy,290,2013-02-19 19:56:00
11:56 AM,39.9,36.9,89,29.83,10.0,East,3.5,-,N/A,,Overcast,100,2013-02-19 20:56:00
12:56 PM,41.0,37.9,89,29.82,10.0,East,5.8,-,0.00,,Overcast,80,2013-02-19 21:56:00
1:56 PM,41.9,36.9,82,29.80,10.0,East,5.8,-,N/A,,Mostly Cloudy,80,2013-02-19 22:56:00
3:56 PM,39.9,36.9,89,29.77,10.0,NNW,4.6,-,N/A,,Mostly Cloudy,340,2013-02-20 00:56:00
4:42 PM,37.4,37.4,100,29.76,4.0,Calm,Calm,-,0.00,Rain,Light Rain,0,2013-02-20 01:42:00
4:56 PM,37.9,37.9,100,29.76,3.0,NW,4.6,-,0.01,Rain,Rain,320,2013-02-20 01:56:00
5:35 PM,35.6,35.6,100,29.74,10.0,East,4.6,-,0.01,,Mostly Cloudy,100,2013-02-20 02:35:00
5:56 PM,35.6,35.6,100,29.73,10.0,East,3.5,-,N/A,,Mostly Cloudy,80,2013-02-20 02:56:00
6:56 PM,34.9,34.9,100,29.70,10.0,Calm,Calm,-,N/A,,Mostly Cloudy,0,2013-02-20 03:56:00
7:56 PM,34.9,34.9,100,29.67,10.0,ESE,4.6,-,N/A,,Mostly Cloudy,120,2013-02-20 04:56:00
8:56 PM,35.6,35.6,100,29.64,10.0,Calm,Calm,-,N/A,,Overcast,0,2013-02-20 05:56:00
9:24 PM,33.8,33.8,100,29.62,10.0,Calm,Calm,-,N/A,,Overcast,0,2013-02-20 06:24:00
9:56 PM,34.0,34.0,100,29.61,10.0,Calm,Calm,-,N/A,,Partly Cloudy,0,2013-02-20 06:56:00
10:56 PM,34.0,34.0,100,29.60,10.0,East,4.6,-,N/A,,Scattered Clouds,80,2013-02-20 07:56:00
11:23 PM,35.6,35.6,100,29.57,6.0,ENE,8.1,-,0.00,,Mostly Cloudy,60,2013-02-20 08:23:00
11:56 PM,37.4,35.6,93,29.56,8.0,East,6.9,-,N/A,,Overcast,80,2013-02-20 08:56:00